createdAt,value
2018-06-18T00:02:01.618Z,62.22
2018-06-18T00:04:30.704Z,61.79
2018-06-18T00:06:59.795Z,61.89
2018-06-18T00:09:28.872Z,62.94
2018-06-18T00:11:57.979Z,62.23
2018-06-18T00:14:27.056Z,62.51
2018-06-18T00:16:56.155Z,62.03
2018-06-18T00:19:25.237Z,62.59
2018-06-18T00:21:54.335Z,62.61
2018-06-18T00:24:23.411Z,63.11
2018-06-18T00:26:52.528Z,62.11
2018-06-18T00:29:21.613Z,62.37
2018-06-18T00:31:50.711Z,62.04
2018-06-18T00:34:19.790Z,62.31
2018-06-18T00:36:48.867Z,61.90
2018-06-18T00:39:17.959Z,62.68
2018-06-18T00:41:47.044Z,62.46
2018-06-18T00:44:16.145Z,61.87
2018-06-18T00:46:45.242Z,61.83
2018-06-18T00:49:14.344Z,61.86
2018-06-18T00:51:43.425Z,61.18
2018-06-18T00:54:12.525Z,61.75
2018-06-18T00:56:41.606Z,61.99
2018-06-18T00:59:10.707Z,61.74
2018-06-18T01:01:39.788Z,61.90
2018-06-18T01:04:08.896Z,62.27
2018-06-18T01:06:37.976Z,62.15
2018-06-18T01:09:09.560Z,61.50
2018-06-18T01:11:38.632Z,61.54
2018-06-18T01:14:07.736Z,61.96
2018-06-18T01:16:36.820Z,61.96
2018-06-18T01:19:05.924Z,61.74
2018-06-18T01:21:35.005Z,61.62
2018-06-18T01:24:13.561Z,62.08
2018-06-18T01:26:42.644Z,62.37
2018-06-18T01:29:11.772Z,62.02
2018-06-18T01:31:40.852Z,62.11
2018-06-18T01:34:26.763Z,62.13
2018-06-18T01:36:55.858Z,62.52
2018-06-18T01:39:24.960Z,62.39
2018-06-18T01:41:54.080Z,62.29
2018-06-18T01:44:23.201Z,61.92
2018-06-18T01:46:52.292Z,61.98
2018-06-18T01:49:21.391Z,62.31
2018-06-18T01:51:50.464Z,62.50
2018-06-18T01:54:19.565Z,62.69
2018-06-18T01:56:48.647Z,62.39
2018-06-18T01:59:17.736Z,62.70
2018-06-18T02:01:46.836Z,62.27
2018-06-18T02:04:15.918Z,62.56
2018-06-18T02:06:45.020Z,62.56
2018-06-18T02:09:14.096Z,61.97
2018-06-18T02:11:43.196Z,62.49
2018-06-18T02:14:12.327Z,62.03
2018-06-18T02:16:41.428Z,62.47
2018-06-18T02:19:10.504Z,62.71
2018-06-18T02:21:40.012Z,62.85
2018-06-18T02:24:09.092Z,62.72
2018-06-18T02:26:38.187Z,62.54
2018-06-18T02:29:12.492Z,62.47
2018-06-18T02:31:46.860Z,62.76
2018-06-18T02:34:21.325Z,62.10
2018-06-18T02:36:55.732Z,62.07
2018-06-18T02:39:24.806Z,62.51
2018-06-18T02:41:53.912Z,62.05
2018-06-18T02:44:22.993Z,62.61
2018-06-18T02:46:52.106Z,62.67
2018-06-18T02:49:21.182Z,62.46
2018-06-18T02:51:50.289Z,62.77
2018-06-18T02:54:19.365Z,62.67
2018-06-18T02:56:54.887Z,62.98
2018-06-18T02:59:23.968Z,63.33
2018-06-18T03:01:53.092Z,63.36
2018-06-18T03:04:22.160Z,63.35
2018-06-18T03:06:51.320Z,63.37
2018-06-18T03:09:20.396Z,63.11
2018-06-18T03:11:49.476Z,63.46
2018-06-18T03:14:18.569Z,63.61
2018-06-18T03:16:47.644Z,64.30
2018-06-18T03:19:22.072Z,64.22
2018-06-18T03:21:56.469Z,64.12
2018-06-18T03:24:30.831Z,63.95
2018-06-18T03:27:05.252Z,64.99
2018-06-18T03:29:35.636Z,65.28
2018-06-18T03:32:08.511Z,64.91
2018-06-18T03:34:37.599Z,65.40
2018-06-18T03:37:08.334Z,65.95
2018-06-18T03:39:37.372Z,65.71
2018-06-18T03:42:06.888Z,66.11
2018-06-18T03:45:13.516Z,65.86
2018-06-18T03:47:42.595Z,66.06
2018-06-18T03:50:11.700Z,65.92
2018-06-18T03:52:40.781Z,66.26
2018-06-18T03:55:13.324Z,66.07
2018-06-18T03:57:42.462Z,66.40
2018-06-18T04:00:11.532Z,65.58
2018-06-18T04:03:03.516Z,66.19
2018-06-18T04:05:38.084Z,65.92
2018-06-18T04:08:10.375Z,66.29
2018-06-18T04:10:44.964Z,66.58
2018-06-18T04:13:14.040Z,65.83
2018-06-18T04:15:43.143Z,65.80
2018-06-18T04:18:12.243Z,66.12
2018-06-18T04:20:47.518Z,65.58
2018-06-18T04:23:16.596Z,65.73
2018-06-18T04:25:45.748Z,65.83
2018-06-18T04:28:14.836Z,65.90
2018-06-18T04:30:45.355Z,65.90
2018-06-18T04:33:16.293Z,66.02
2018-06-18T04:35:45.949Z,66.02
2018-06-18T04:38:15.041Z,65.52
2018-06-18T04:40:44.139Z,65.11
2018-06-18T04:43:18.580Z,64.65
2018-06-18T04:45:51.876Z,64.78
2018-06-18T04:48:26.240Z,64.96
2018-06-18T04:50:59.287Z,65.08
2018-06-18T04:53:28.364Z,64.66
2018-06-18T04:55:57.465Z,64.79
2018-06-18T04:58:26.552Z,65.06
2018-06-18T05:01:09.512Z,64.95
2018-06-18T05:03:38.604Z,65.36
2018-06-18T05:06:07.700Z,64.29
2018-06-18T05:09:00.857Z,64.76
2018-06-18T05:11:29.953Z,64.37
2018-06-18T05:14:05.074Z,63.74
2018-06-18T05:16:34.249Z,63.85
2018-06-18T05:19:03.327Z,64.65
2018-06-18T05:21:32.424Z,63.58
2018-06-18T05:24:01.505Z,64.10
2018-06-18T05:26:31.168Z,64.68
2018-06-18T05:29:00.252Z,64.36
2018-06-18T05:31:29.372Z,63.35
2018-06-18T05:33:58.452Z,64.55
2018-06-18T05:36:27.552Z,64.67
2018-06-18T05:38:56.640Z,64.12
2018-06-18T05:41:25.743Z,64.02
2018-06-18T05:43:54.820Z,63.72
2018-06-18T05:46:23.940Z,64.60
2018-06-18T05:48:53.032Z,64.41
2018-06-18T05:51:22.144Z,64.70
2018-06-18T05:53:51.221Z,64.80
2018-06-18T05:56:20.328Z,64.99
2018-06-18T05:58:49.404Z,64.04
2018-06-18T06:01:19.455Z,63.31
2018-06-18T06:03:49.437Z,62.84
2018-06-18T06:06:19.553Z,63.11
2018-06-18T06:08:49.463Z,62.30
2018-06-18T06:11:18.548Z,60.66
2018-06-18T06:13:47.652Z,60.26
2018-06-18T06:16:16.740Z,60.66
2018-06-18T06:18:45.833Z,60.13
2018-06-18T06:21:15.517Z,59.66
2018-06-18T06:23:45.175Z,60.85
2018-06-18T06:26:14.805Z,61.03
2018-06-18T06:28:43.893Z,60.51
2018-06-18T06:31:12.968Z,59.92
2018-06-18T06:33:42.177Z,60.20
2018-06-18T06:36:11.943Z,60.93
2018-06-18T06:38:41.040Z,60.50
2018-06-18T06:41:10.812Z,60.55
2018-06-18T06:43:39.910Z,60.61
2018-06-18T06:46:09.012Z,60.89
2018-06-18T06:48:38.124Z,60.20
2018-06-18T06:51:07.220Z,60.40
2018-06-18T06:53:36.353Z,60.93
2018-06-18T06:56:05.568Z,61.03
2018-06-18T06:58:34.676Z,61.32
2018-06-18T07:01:03.775Z,61.71
2018-06-18T07:03:32.872Z,61.00
2018-06-18T07:06:01.965Z,60.94
2018-06-18T07:08:31.068Z,62.19
2018-06-18T07:11:00.169Z,61.71
2018-06-18T07:13:29.451Z,61.96
2018-06-18T07:15:58.465Z,61.74
2018-06-18T07:18:27.592Z,63.23
2018-06-18T07:20:56.701Z,65.14
2018-06-18T07:23:29.252Z,65.18
2018-06-18T07:25:59.379Z,65.80
2018-06-18T07:28:29.417Z,65.02
2018-06-18T07:30:59.478Z,65.75
2018-06-18T07:33:29.745Z,65.34
2018-06-18T07:36:01.186Z,65.07
2018-06-18T07:38:31.143Z,66.91
2018-06-18T07:41:03.159Z,66.48
2018-06-18T07:43:33.235Z,67.04
2018-06-18T07:46:03.347Z,67.16
2018-06-18T07:48:33.601Z,65.86
2018-06-18T07:51:03.597Z,66.87
2018-06-18T07:53:34.086Z,67.68
2018-06-18T07:56:04.843Z,67.29
2018-06-18T07:58:35.507Z,66.08
2018-06-18T08:01:05.410Z,66.38
2018-06-18T08:03:36.264Z,65.77
2018-06-18T08:06:06.259Z,63.92
2018-06-18T08:08:37.016Z,63.84
2018-06-18T08:11:06.978Z,62.80
2018-06-18T08:13:37.404Z,62.73
2018-06-18T08:16:07.563Z,62.58
2018-06-18T08:18:37.698Z,62.18
2018-06-18T08:21:07.989Z,61.29
2018-06-18T08:23:37.992Z,61.72
2018-06-18T08:26:07.188Z,61.79
2018-06-18T08:28:36.337Z,62.17
2018-06-18T08:31:05.486Z,60.57
2018-06-18T08:33:35.171Z,60.39
2018-06-18T08:36:04.442Z,59.38
2018-06-18T08:38:33.530Z,59.26
2018-06-18T08:41:04.088Z,60.50
2018-06-18T08:43:35.120Z,59.99
2018-06-18T08:46:05.179Z,60.63
2018-06-18T08:48:40.639Z,59.97
2018-06-18T08:51:16.551Z,59.22
2018-06-18T08:53:51.610Z,59.49
2018-06-18T08:56:28.132Z,60.34
2018-06-18T08:59:03.537Z,61.01
2018-06-18T09:01:39.530Z,61.17
2018-06-18T09:04:15.766Z,60.56
2018-06-18T09:09:27.117Z,60.68
2018-06-18T09:11:58.090Z,60.97
2018-06-18T09:14:28.584Z,60.74
2018-06-18T09:17:02.439Z,60.97
2018-06-18T09:19:34.997Z,61.58
2018-06-18T09:22:06.635Z,61.40
2018-06-18T09:24:37.392Z,60.49
2018-06-18T09:27:14.655Z,60.40
2018-06-18T09:29:50.383Z,60.20
2018-06-18T09:32:21.822Z,59.82
2018-06-18T09:34:52.939Z,59.56
2018-06-18T09:37:24.911Z,58.95
2018-06-18T09:39:55.185Z,59.15
2018-06-18T09:42:26.794Z,57.96
2018-06-18T09:44:56.868Z,58.22
2018-06-18T09:47:27.619Z,59.57
2018-06-18T09:50:02.551Z,59.08
2018-06-18T09:52:37.937Z,60.14
2018-06-18T09:55:13.224Z,59.51
2018-06-18T09:57:48.633Z,58.66
2018-06-18T10:00:35.794Z,58.02
2018-06-18T10:03:07.560Z,58.73
2018-06-18T10:05:38.025Z,57.04
2018-06-18T10:08:07.218Z,55.83
2018-06-18T10:10:36.302Z,55.15
2018-06-18T10:13:05.401Z,56.19
2018-06-18T10:15:34.497Z,55.02
2018-06-18T10:18:03.593Z,56.14
2018-06-18T10:20:32.682Z,54.92
2018-06-18T10:23:01.976Z,55.72
2018-06-18T10:25:31.068Z,55.66
2018-06-18T10:28:00.217Z,54.66
2018-06-18T10:30:29.296Z,53.83
2018-06-18T10:34:06.572Z,53.58
2018-06-18T10:36:42.392Z,52.98
2018-06-18T10:39:16.880Z,53.41
2018-06-18T10:41:51.971Z,55.01
2018-06-18T10:44:23.098Z,53.17
2018-06-18T10:46:52.185Z,54.58
2018-06-18T10:49:21.324Z,53.46
2018-06-18T10:51:50.397Z,55.59
2018-06-18T10:54:19.528Z,55.10
2018-06-18T10:56:48.994Z,53.94
2018-06-18T10:59:18.101Z,55.04
2018-06-18T11:01:47.185Z,54.71
2018-06-18T11:04:21.732Z,54.37
2018-06-18T11:06:50.839Z,54.05
2018-06-18T11:09:23.141Z,53.41
2018-06-18T11:11:53.224Z,54.25
2018-06-18T11:14:22.328Z,53.34
2018-06-18T11:16:57.011Z,52.91
2018-06-18T11:19:31.348Z,51.39
2018-06-18T11:22:03.781Z,52.45
2018-06-18T11:24:38.181Z,53.02
2018-06-18T11:27:07.422Z,53.45
2018-06-18T11:29:36.382Z,53.07
2018-06-18T11:32:05.497Z,53.35
2018-06-18T11:34:35.319Z,53.96
2018-06-18T11:37:04.956Z,52.42
2018-06-18T11:39:34.043Z,51.61
2018-06-18T11:42:03.265Z,51.32
2018-06-18T11:44:32.291Z,52.83
2018-06-18T11:47:01.408Z,51.46
2018-06-18T11:49:30.487Z,51.30
2018-06-18T11:51:59.592Z,51.73
2018-06-18T11:54:28.756Z,50.96
2018-06-18T11:56:57.896Z,49.71
2018-06-18T12:00:30.557Z,50.39
2018-06-18T12:03:05.503Z,50.87
2018-06-18T12:05:40.053Z,50.23
2018-06-18T12:08:14.475Z,50.48
2018-06-18T12:10:43.788Z,50.05
2018-06-18T12:13:12.944Z,49.42
2018-06-18T12:15:42.084Z,47.31
2018-06-18T12:18:11.240Z,48.65
2018-06-18T12:20:40.349Z,51.46
2018-06-18T12:23:09.504Z,49.87
2018-06-18T12:25:38.609Z,51.13
2018-06-18T12:28:07.860Z,51.22
2018-06-18T12:30:36.908Z,49.66
2018-06-18T12:33:06.072Z,50.01
2018-06-18T12:35:35.220Z,50.16
2018-06-18T12:38:04.408Z,49.10
2018-06-18T12:40:33.486Z,48.49
2018-06-18T12:43:02.590Z,47.88
2018-06-18T12:45:37.057Z,48.43
2018-06-18T12:48:11.552Z,48.65
2018-06-18T12:50:47.549Z,48.93
2018-06-18T12:53:22.004Z,49.65
2018-06-18T12:55:56.466Z,48.36
2018-06-18T12:58:25.699Z,47.69
2018-06-18T13:00:54.764Z,48.16
2018-06-18T13:03:23.961Z,48.62
2018-06-18T13:05:52.997Z,49.19
2018-06-18T13:08:22.101Z,50.13
2018-06-18T13:10:51.165Z,50.79
2018-06-18T13:13:20.273Z,49.77
2018-06-18T13:15:49.419Z,50.46
2018-06-18T13:18:18.531Z,50.75
2018-06-18T13:20:47.608Z,48.24
2018-06-18T13:23:16.695Z,49.47
2018-06-18T13:25:45.776Z,49.65
2018-06-18T13:28:15.186Z,49.73
2018-06-18T13:30:44.718Z,50.39
2018-06-18T13:33:13.804Z,48.54
2018-06-18T13:35:42.892Z,49.83
2018-06-18T13:38:17.325Z,50.13
2018-06-18T13:40:51.893Z,50.10
2018-06-18T13:43:26.205Z,50.31
2018-06-18T13:46:00.754Z,50.15
2018-06-18T13:48:35.096Z,48.91
2018-06-18T13:51:04.660Z,48.94
2018-06-18T13:53:34.001Z,48.81
2018-06-18T13:56:03.068Z,49.13
2018-06-18T13:58:32.189Z,48.92
2018-06-18T14:01:01.321Z,48.71
2018-06-18T14:03:31.099Z,49.87
2018-06-18T14:06:00.173Z,49.69
2018-06-18T14:08:29.268Z,49.68
2018-06-18T14:10:58.395Z,50.02
2018-06-18T14:13:27.494Z,50.25
2018-06-18T14:15:56.570Z,48.49
2018-06-18T14:18:25.687Z,48.44
2018-06-18T14:20:54.790Z,51.03
2018-06-18T14:23:23.951Z,50.36
2018-06-18T14:25:53.067Z,50.17
2018-06-18T14:28:22.368Z,50.51
2018-06-18T14:30:56.853Z,51.32
2018-06-18T14:33:31.295Z,50.49
2018-06-18T14:36:05.737Z,50.64
2018-06-18T14:38:40.182Z,50.76
2018-06-18T14:41:09.512Z,49.81
2018-06-18T14:43:38.591Z,49.98
2018-06-18T14:46:07.854Z,50.86
2018-06-18T14:48:36.912Z,50.90
2018-06-18T14:51:05.887Z,51.54
2018-06-18T14:53:34.956Z,52.18
2018-06-18T14:56:11.426Z,51.22
2018-06-18T14:58:41.721Z,52.18
2018-06-18T15:01:10.820Z,51.80
2018-06-18T15:03:39.938Z,51.90
2018-06-18T15:06:09.020Z,51.91
2018-06-18T15:08:38.092Z,52.25
2018-06-18T15:11:07.208Z,51.78
2018-06-18T15:13:36.285Z,51.33
2018-06-18T15:16:10.881Z,51.63
2018-06-18T15:18:39.965Z,50.94
2018-06-18T15:21:09.092Z,51.14
2018-06-18T15:23:38.188Z,51.82
2018-06-18T15:26:07.307Z,51.83
2018-06-18T15:28:36.323Z,52.72
2018-06-18T15:31:05.432Z,52.56
2018-06-18T15:33:34.501Z,52.29
2018-06-18T15:36:03.604Z,52.65
2018-06-18T15:38:32.718Z,53.38
2018-06-18T15:41:01.752Z,53.90
2018-06-18T15:43:30.851Z,53.14
2018-06-18T15:45:59.953Z,53.37
2018-06-18T15:48:29.384Z,54.04
2018-06-18T15:50:58.472Z,54.47
2018-06-18T15:53:27.577Z,54.17
2018-06-18T15:55:56.660Z,53.90
2018-06-18T15:58:25.761Z,54.07
2018-06-18T16:00:54.844Z,53.96
2018-06-18T16:03:23.948Z,54.88
2018-06-18T16:05:53.164Z,55.22
2018-06-18T16:08:22.264Z,55.89
2018-06-18T16:10:51.423Z,55.91
2018-06-18T16:13:20.525Z,57.32
2018-06-18T16:15:49.605Z,57.24
2018-06-18T16:18:18.711Z,57.06
2018-06-18T16:20:47.793Z,57.44
2018-06-18T16:23:16.897Z,58.09
2018-06-18T16:25:45.973Z,57.38
2018-06-18T16:28:15.071Z,57.06
2018-06-18T16:30:44.153Z,57.77
2018-06-18T16:33:13.252Z,58.86
2018-06-18T16:35:42.337Z,61.20
2018-06-18T16:38:11.444Z,62.97
2018-06-18T16:40:40.524Z,62.74
2018-06-18T16:43:09.633Z,61.91
2018-06-18T16:45:38.729Z,61.53
2018-06-18T16:48:07.859Z,61.52
2018-06-18T16:50:36.961Z,61.01
2018-06-18T16:53:06.036Z,60.55
2018-06-18T16:55:35.188Z,60.30
2018-06-18T16:58:04.276Z,59.15
2018-06-18T17:00:33.476Z,58.81
2018-06-18T17:03:02.552Z,59.25
2018-06-18T17:05:31.753Z,59.04
2018-06-18T17:08:00.833Z,58.57
2018-06-18T17:10:29.924Z,58.84
2018-06-18T17:12:58.992Z,58.93
2018-06-18T17:15:28.084Z,58.81
2018-06-18T17:17:57.156Z,58.65
2018-06-18T17:20:26.247Z,58.85
2018-06-18T17:22:55.320Z,59.46
2018-06-18T17:25:24.412Z,59.60
2018-06-18T17:27:53.492Z,59.64
2018-06-18T17:30:22.981Z,60.49
2018-06-18T17:32:52.060Z,62.28
2018-06-18T17:35:21.157Z,62.70
2018-06-18T17:37:50.221Z,63.07
2018-06-18T17:40:19.315Z,63.61
2018-06-18T17:42:48.376Z,64.24
2018-06-18T17:45:17.475Z,64.40
2018-06-18T17:47:46.584Z,63.76
2018-06-18T17:50:16.167Z,65.11
2018-06-18T17:52:45.221Z,65.17
2018-06-18T17:55:14.308Z,65.66
2018-06-18T17:57:43.392Z,66.14
2018-06-18T18:00:12.484Z,65.40
2018-06-18T18:02:41.633Z,64.31
2018-06-18T18:05:10.704Z,65.04
2018-06-18T18:07:39.780Z,64.72
2018-06-18T18:10:08.881Z,64.79
2018-06-18T18:12:38.825Z,64.60
2018-06-18T18:15:07.924Z,63.89
2018-06-18T18:17:37.029Z,64.35
2018-06-18T18:20:06.121Z,64.29
2018-06-18T18:22:35.219Z,64.84
2018-06-18T18:25:04.293Z,64.58
2018-06-18T18:27:33.392Z,64.95
2018-06-18T18:30:03.528Z,64.70
2018-06-18T18:32:34.333Z,64.47
2018-06-18T18:35:04.114Z,63.71
2018-06-18T18:37:33.505Z,64.39
2018-06-18T18:40:03.253Z,65.06
2018-06-18T18:42:32.980Z,64.83
2018-06-18T18:45:02.482Z,64.61
2018-06-18T18:48:33.643Z,65.76
2018-06-18T18:51:03.784Z,65.56
2018-06-18T18:53:33.119Z,65.66
2018-06-18T18:56:14.420Z,65.15
2018-06-18T18:59:48.068Z,66.21
2018-06-18T19:02:17.157Z,66.03
2018-06-18T19:04:56.115Z,66.01
2018-06-18T19:07:31.983Z,65.63
2018-06-18T19:10:08.864Z,65.46
2018-06-18T19:12:38.200Z,65.06
2018-06-18T19:15:09.433Z,65.03
2018-06-18T19:17:39.289Z,65.34
2018-06-18T19:20:15.623Z,65.72
2018-06-18T19:22:45.102Z,65.72
2018-06-18T19:25:14.692Z,66.07
2018-06-18T19:27:44.335Z,65.63
2018-06-18T19:30:14.129Z,65.58
2018-06-18T19:32:43.771Z,65.83
2018-06-18T19:35:14.432Z,66.26
2018-06-18T19:37:44.283Z,65.74
2018-06-18T19:40:13.449Z,66.46
2018-06-18T19:42:42.505Z,66.28
2018-06-18T19:45:13.106Z,66.66
2018-06-18T19:47:47.057Z,66.61
2018-06-18T19:50:16.588Z,66.46
2018-06-18T19:52:45.656Z,66.33
2018-06-18T19:55:17.716Z,66.53
2018-06-18T19:57:46.800Z,66.02
2018-06-18T20:00:16.125Z,65.88
2018-06-18T20:02:45.240Z,66.37
2018-06-18T20:05:14.940Z,67.06
2018-06-18T20:07:51.261Z,67.00
2018-06-18T20:10:20.889Z,66.73
2018-06-18T20:12:51.029Z,66.80
2018-06-18T20:15:21.237Z,66.37
2018-06-18T20:17:51.674Z,66.58
2018-06-18T20:20:21.941Z,66.29
2018-06-18T20:22:52.167Z,66.83
2018-06-18T20:25:26.472Z,66.08
2018-06-18T20:27:56.991Z,66.65
2018-06-18T20:30:27.729Z,66.11
2018-06-18T20:32:58.116Z,66.01
2018-06-18T20:35:36.947Z,66.22
2018-06-18T20:38:08.581Z,65.95
2018-06-18T20:40:38.967Z,66.43
2018-06-18T20:43:10.084Z,66.27
2018-06-18T20:45:41.020Z,67.00
2018-06-18T20:48:13.138Z,66.82
2018-06-18T20:50:45.164Z,67.20
2018-06-18T20:53:19.468Z,67.01
2018-06-18T20:55:50.081Z,67.07
2018-06-18T20:58:21.334Z,67.18
2018-06-18T21:00:52.085Z,66.22
2018-06-18T21:03:23.029Z,66.80
2018-06-18T21:05:53.420Z,66.98
2018-06-18T21:08:24.739Z,66.54
2018-06-18T21:10:55.239Z,67.30
2018-06-18T21:13:26.232Z,67.32
2018-06-18T21:15:56.608Z,67.12
2018-06-18T21:18:27.035Z,67.60
2018-06-18T21:20:57.296Z,66.90
2018-06-18T21:23:27.464Z,67.31
2018-06-18T21:25:57.112Z,66.76
2018-06-18T21:28:27.216Z,67.31
2018-06-18T21:30:56.381Z,67.96
2018-06-18T21:33:25.484Z,68.53
2018-06-18T21:35:54.645Z,67.93
2018-06-18T21:38:23.803Z,67.56
2018-06-18T21:40:52.904Z,67.87
2018-06-18T21:43:21.980Z,67.78
2018-06-18T21:45:51.091Z,68.18
2018-06-18T21:48:20.168Z,68.81
2018-06-18T21:50:49.268Z,69.55
2018-06-18T21:53:18.328Z,69.39
2018-06-18T21:55:47.488Z,68.91
2018-06-18T21:58:16.539Z,69.10
2018-06-18T22:00:48.042Z,68.75
2018-06-18T22:03:17.228Z,68.81
2018-06-18T22:05:46.413Z,68.96
2018-06-18T22:08:17.305Z,69.09
2018-06-18T22:10:46.444Z,69.01
2018-06-18T22:13:15.480Z,69.01
2018-06-18T22:15:44.580Z,68.69
2018-06-18T22:18:13.656Z,68.85
2018-06-18T22:20:42.756Z,68.79
2018-06-18T22:23:11.827Z,69.20
2018-06-18T22:25:40.956Z,69.02
2018-06-18T22:28:20.440Z,69.47
2018-06-18T22:30:49.532Z,69.58
2018-06-18T22:33:18.612Z,69.23
2018-06-18T22:35:47.713Z,69.59
2018-06-18T22:38:16.812Z,69.66
2018-06-18T22:40:45.907Z,69.17
2018-06-18T22:43:14.988Z,68.92
2018-06-18T22:45:44.103Z,69.17
2018-06-18T22:48:13.188Z,69.27
2018-06-18T22:50:42.285Z,69.19
2018-06-18T22:53:11.368Z,69.73
2018-06-18T22:55:40.472Z,69.52
2018-06-18T22:58:09.591Z,69.36
2018-06-18T23:00:38.624Z,69.48
2018-06-18T23:03:07.724Z,69.47
2018-06-18T23:05:36.804Z,68.77
2018-06-18T23:08:05.908Z,69.01
2018-06-18T23:10:34.972Z,68.93
2018-06-18T23:13:04.072Z,69.31
2018-06-18T23:15:33.156Z,68.45
2018-06-18T23:18:02.251Z,68.29
2018-06-18T23:20:31.336Z,68.35
2018-06-18T23:23:00.487Z,67.85
2018-06-18T23:25:29.548Z,68.06
2018-06-18T23:27:58.644Z,68.10
2018-06-18T23:30:27.720Z,67.49
2018-06-18T23:32:56.811Z,67.19
2018-06-18T23:35:25.891Z,67.09
2018-06-18T23:37:54.989Z,67.11
2018-06-18T23:40:24.068Z,67.27
2018-06-18T23:42:53.164Z,67.43
2018-06-18T23:45:22.256Z,67.56
2018-06-18T23:47:51.395Z,67.68
2018-06-18T23:50:20.481Z,67.43
2018-06-18T23:52:49.584Z,68.26
2018-06-18T23:55:18.675Z,67.57
2018-06-18T23:57:47.822Z,68.42
